Time,TemperatureF,DewpointF,PressureIn,WindDirection,WindDirectionDegrees,WindSpeedMPH,WindSpeedGustMPH,Humidity,HourlyPrecipIn,Conditions,Clouds,dailyrainin,SoftwareType,DateUTC
2013-01-31 00:01:00,34.0,20.8,29.76,NNE,26,0.0,4.0,58,0.00,,---,0.00,VWS V14.01,2013-01-31 07:01:00,
2013-01-31 00:06:00,34.3,19.4,29.76,WSW,239,11.0,11.9,54,0.00,,---,0.00,VWS V14.01,2013-01-31 07:06:00,
2013-01-31 00:11:00,34.9,19.1,29.76,WNW,289,5.8,6.3,52,0.00,,---,0.00,VWS V14.01,2013-01-31 07:11:00,
2013-01-31 00:16:00,35.2,18.9,29.76,West,260,3.1,4.0,51,0.00,,---,0.00,VWS V14.01,2013-01-31 07:16:00,
2013-01-31 00:21:00,35.4,18.6,29.76,WNW,301,3.1,11.0,50,0.00,,---,0.00,VWS V14.01,2013-01-31 07:21:00,
2013-01-31 00:26:00,35.6,18.3,29.76,WSW,258,8.1,8.1,49,0.00,,---,0.00,VWS V14.01,2013-01-31 07:26:00,
2013-01-31 00:31:00,35.8,18.0,29.76,West,271,20.1,20.1,48,0.00,,---,0.00,VWS V14.01,2013-01-31 07:31:00,
2013-01-31 00:36:00,35.8,18.5,29.73,WSW,249,20.6,20.6,49,0.00,,---,0.00,VWS V14.01,2013-01-31 07:36:00,
2013-01-31 00:41:00,35.8,18.0,29.73,NW,308,11.9,11.9,48,0.00,,---,0.00,VWS V14.01,2013-01-31 07:41:00,
2013-01-31 00:46:00,35.8,18.0,29.73,NW,317,11.0,15.4,48,0.00,,---,0.00,VWS V14.01,2013-01-31 07:46:00,
2013-01-31 00:51:00,35.8,18.5,29.76,NW,310,4.0,6.7,49,0.00,,---,0.00,VWS V14.01,2013-01-31 07:51:00,
2013-01-31 00:56:00,35.6,18.3,29.76,NW,318,4.9,5.8,49,0.00,,---,0.00,VWS V14.01,2013-01-31 07:56:00,
2013-01-31 01:01:00,35.6,18.3,29.76,WNW,289,7.6,7.6,49,0.00,,---,0.00,VWS V14.01,2013-01-31 08:01:00,
2013-01-31 01:06:00,35.4,18.6,29.76,West,272,5.4,5.4,50,0.00,,---,0.00,VWS V14.01,2013-01-31 08:06:00,
2013-01-31 01:11:00,35.4,18.6,29.76,WNW,293,4.0,4.0,50,0.00,,---,0.00,VWS V14.01,2013-01-31 08:11:00,
2013-01-31 01:16:00,35.4,18.6,29.76,West,281,5.4,8.3,50,0.00,,---,0.00,VWS V14.01,2013-01-31 08:16:00,
2013-01-31 01:21:00,35.4,18.6,29.76,NW,324,12.3,13.2,50,0.00,,---,0.00,VWS V14.01,2013-01-31 08:21:00,
2013-01-31 01:26:00,35.4,18.6,29.76,NW,304,5.4,5.4,50,0.00,,---,0.00,VWS V14.01,2013-01-31 08:26:00,
2013-01-31 01:31:00,35.6,18.3,29.76,NW,319,13.2,13.2,49,0.00,,---,0.00,VWS V14.01,2013-01-31 08:31:00,
2013-01-31 01:36:00,35.6,18.3,29.76,WNW,303,6.3,6.3,49,0.00,,---,0.00,VWS V14.01,2013-01-31 08:36:00,
2013-01-31 01:41:00,35.6,18.3,29.76,West,260,5.8,5.8,49,0.00,,---,0.00,VWS V14.01,2013-01-31 08:41:00,
2013-01-31 01:46:00,35.8,18.0,29.76,WNW,302,5.4,11.0,48,0.00,,---,0.00,VWS V14.01,2013-01-31 08:46:00,
2013-01-31 01:51:00,35.8,18.0,29.76,West,270,5.8,10.5,48,0.00,,---,0.00,VWS V14.01,2013-01-31 08:51:00,
2013-01-31 01:56:00,35.8,18.5,29.76,ESE,123,5.4,8.1,49,0.00,,---,0.00,VWS V14.01,2013-01-31 08:56:00,
2013-01-31 02:01:00,35.8,18.5,29.76,NW,310,4.5,8.3,49,0.00,,---,0.00,VWS V14.01,2013-01-31 09:01:00,
2013-01-31 02:06:00,35.8,18.5,29.76,SSW,207,7.6,7.6,49,0.00,,---,0.00,VWS V14.01,2013-01-31 09:06:00,
2013-01-31 02:11:00,35.8,18.5,29.76,NW,323,12.3,12.3,49,0.00,,---,0.00,VWS V14.01,2013-01-31 09:11:00,
2013-01-31 02:16:00,36.0,18.2,29.76,NNW,348,2.7,3.6,48,0.00,,---,0.00,VWS V14.01,2013-01-31 09:16:00,
2013-01-31 02:21:00,36.0,17.7,29.76,WSW,255,11.0,11.0,47,0.00,,---,0.00,VWS V14.01,2013-01-31 09:21:00,
2013-01-31 02:26:00,36.1,17.9,29.76,WNW,287,2.2,3.6,47,0.00,,---,0.00,VWS V14.01,2013-01-31 09:26:00,
2013-01-31 02:31:00,36.1,17.9,29.76,WNW,287,8.7,8.7,47,0.00,,---,0.00,VWS V14.01,2013-01-31 09:31:00,
2013-01-31 02:36:00,36.1,17.9,29.79,WSW,255,8.1,8.3,47,0.00,,---,0.00,VWS V14.01,2013-01-31 09:36:00,
2013-01-31 02:41:00,36.1,17.9,29.79,WNW,302,6.7,6.7,47,0.00,,---,0.00,VWS V14.01,2013-01-31 09:41:00,
2013-01-31 02:46:00,36.0,18.2,29.79,WNW,303,0.0,4.0,48,0.00,,---,0.00,VWS V14.01,2013-01-31 09:46:00,
2013-01-31 02:51:00,35.8,18.0,29.79,NW,314,4.9,4.9,48,0.00,,---,0.00,VWS V14.01,2013-01-31 09:51:00,
2013-01-31 02:56:00,36.0,17.7,29.79,West,268,8.7,8.7,47,0.00,,---,0.00,VWS V14.01,2013-01-31 09:56:00,
2013-01-31 03:01:00,36.1,16.9,29.79,WSW,254,12.3,12.3,45,0.00,,---,0.00,VWS V14.01,2013-01-31 10:01:00,
2013-01-31 03:06:00,36.1,17.4,29.79,West,281,10.5,10.5,46,0.00,,---,0.00,VWS V14.01,2013-01-31 10:06:00,
2013-01-31 03:11:00,36.3,17.0,29.79,West,271,10.1,10.1,45,0.00,,---,0.00,VWS V14.01,2013-01-31 10:11:00,
2013-01-31 03:16:00,36.1,17.4,29.79,NW,304,5.4,5.4,46,0.00,,---,0.00,VWS V14.01,2013-01-31 10:16:00,
2013-01-31 03:21:00,36.0,17.7,29.79,North,357,2.7,5.8,47,0.00,,---,0.00,VWS V14.01,2013-01-31 10:21:00,
2013-01-31 03:26:00,35.8,17.5,29.79,NW,324,5.4,10.1,47,0.00,,---,0.00,VWS V14.01,2013-01-31 10:26:00,
2013-01-31 03:31:00,35.8,18.5,29.79,NW,316,4.9,6.3,49,0.00,,---,0.00,VWS V14.01,2013-01-31 10:31:00,
2013-01-31 03:36:00,35.8,18.5,29.79,WNW,290,4.9,6.3,49,0.00,,---,0.00,VWS V14.01,2013-01-31 10:36:00,
2013-01-31 03:41:00,35.8,19.0,29.79,West,274,3.1,3.1,50,0.00,,---,0.00,VWS V14.01,2013-01-31 10:41:00,
2013-01-31 03:46:00,35.6,18.8,29.79,WNW,292,0.0,2.2,50,0.00,,---,0.00,VWS V14.01,2013-01-31 10:46:00,
2013-01-31 03:51:00,35.6,18.3,29.79,West,269,6.3,7.6,49,0.00,,---,0.00,VWS V14.01,2013-01-31 10:51:00,
2013-01-31 03:56:00,35.6,19.3,29.79,East,80,0.0,4.0,51,0.00,,---,0.00,VWS V14.01,2013-01-31 10:56:00,
2013-01-31 04:01:00,35.6,18.3,29.79,NW,307,5.4,7.6,49,0.00,,---,0.00,VWS V14.01,2013-01-31 11:01:00,
2013-01-31 04:06:00,35.8,18.5,29.79,SW,216,4.0,4.0,49,0.00,,---,0.00,VWS V14.01,2013-01-31 11:06:00,
2013-01-31 04:11:00,36.0,17.7,29.79,West,280,7.6,11.9,47,0.00,,---,0.00,VWS V14.01,2013-01-31 11:11:00,
2013-01-31 04:16:00,36.1,17.9,29.79,NE,35,8.3,8.3,47,0.00,,---,0.00,VWS V14.01,2013-01-31 11:16:00,
2013-01-31 04:21:00,36.3,17.5,29.79,West,272,5.8,7.6,46,0.00,,---,0.00,VWS V14.01,2013-01-31 11:21:00,
2013-01-31 04:26:00,36.3,17.5,29.79,West,262,6.3,6.3,46,0.00,,---,0.00,VWS V14.01,2013-01-31 11:26:00,
2013-01-31 04:31:00,36.1,17.9,29.79,West,268,2.7,5.8,47,0.00,,---,0.00,VWS V14.01,2013-01-31 11:31:00,
2013-01-31 04:36:00,36.1,17.9,29.79,West,271,10.1,10.1,47,0.00,,---,0.00,VWS V14.01,2013-01-31 11:36:00,
2013-01-31 04:41:00,36.1,17.9,29.79,SSW,194,2.7,3.1,47,0.00,,---,0.00,VWS V14.01,2013-01-31 11:41:00,
2013-01-31 04:46:00,36.1,18.4,29.79,SSW,192,5.4,5.4,48,0.00,,---,0.00,VWS V14.01,2013-01-31 11:46:00,
2013-01-31 04:51:00,36.3,17.0,29.79,SSW,206,4.9,4.9,45,0.00,,---,0.00,VWS V14.01,2013-01-31 11:51:00,
2013-01-31 04:56:00,36.3,17.0,29.79,West,267,8.3,12.3,45,0.00,,---,0.00,VWS V14.01,2013-01-31 11:56:00,
2013-01-31 05:01:00,36.5,17.7,29.79,NE,55,2.7,2.7,46,0.00,,---,0.00,VWS V14.01,2013-01-31 12:01:00,
2013-01-31 05:06:00,36.1,18.4,29.79,NW,310,2.2,2.2,48,0.00,,---,0.00,VWS V14.01,2013-01-31 12:06:00,
2013-01-31 05:11:00,36.1,17.4,29.79,South,187,4.0,4.0,46,0.00,,---,0.00,VWS V14.01,2013-01-31 12:11:00,
2013-01-31 05:16:00,36.3,17.5,29.79,NW,312,3.1,3.1,46,0.00,,---,0.00,VWS V14.01,2013-01-31 12:16:00,
2013-01-31 05:21:00,36.3,18.0,29.79,West,281,3.1,5.8,47,0.00,,---,0.00,VWS V14.01,2013-01-31 12:21:00,
2013-01-31 05:26:00,36.1,18.4,29.79,WNW,283,5.8,5.8,48,0.00,,---,0.00,VWS V14.01,2013-01-31 12:26:00,
2013-01-31 05:31:00,36.3,18.5,29.79,WSW,251,4.0,4.9,48,0.00,,---,0.00,VWS V14.01,2013-01-31 12:31:00,
2013-01-31 05:36:00,36.0,19.1,29.79,NW,324,2.7,2.7,50,0.00,,---,0.00,VWS V14.01,2013-01-31 12:36:00,
2013-01-31 05:41:00,35.4,19.1,29.79,NNE,22,2.2,2.7,51,0.00,,---,0.00,VWS V14.01,2013-01-31 12:41:00,
2013-01-31 05:46:00,35.4,19.6,29.79,West,280,4.9,4.9,52,0.00,,---,0.00,VWS V14.01,2013-01-31 12:46:00,
2013-01-31 05:51:00,35.6,19.3,29.79,ENE,76,3.1,3.1,51,0.00,,---,0.00,VWS V14.01,2013-01-31 12:51:00,
2013-01-31 05:56:00,36.1,18.8,29.79,NW,308,2.2,3.6,49,0.00,,---,0.00,VWS V14.01,2013-01-31 12:56:00,
2013-01-31 06:01:00,35.8,19.0,29.79,North,353,0.0,0.0,50,0.00,,---,0.00,VWS V14.01,2013-01-31 13:01:00,
2013-01-31 06:06:00,35.8,19.4,29.79,NW,321,3.1,3.1,51,0.00,,---,0.00,VWS V14.01,2013-01-31 13:06:00,
2013-01-31 06:11:00,36.1,19.3,29.79,WNW,295,4.9,4.9,50,0.00,,---,0.00,VWS V14.01,2013-01-31 13:11:00,
2013-01-31 06:16:00,36.3,19.5,29.79,NW,310,8.7,8.7,50,0.00,,---,0.00,VWS V14.01,2013-01-31 13:16:00,
2013-01-31 06:21:00,36.3,19.5,29.79,North,357,2.2,2.2,50,0.00,,---,0.00,VWS V14.01,2013-01-31 13:21:00,
2013-01-31 06:26:00,36.1,18.8,29.79,SSW,210,3.6,3.6,49,0.00,,---,0.00,VWS V14.01,2013-01-31 13:26:00,
2013-01-31 06:31:00,36.3,19.0,29.79,NW,312,3.1,6.3,49,0.00,,---,0.00,VWS V14.01,2013-01-31 13:31:00,
2013-01-31 06:36:00,36.3,19.0,29.79,NW,314,2.2,2.2,49,0.00,,---,0.00,VWS V14.01,2013-01-31 13:36:00,
2013-01-31 06:41:00,36.3,19.5,29.79,NW,325,0.0,0.0,50,0.00,,---,0.00,VWS V14.01,2013-01-31 13:41:00,
2013-01-31 06:46:00,36.1,19.3,29.79,WNW,292,2.7,2.7,50,0.00,,---,0.00,VWS V14.01,2013-01-31 13:46:00,
2013-01-31 06:51:00,36.3,19.0,29.79,WNW,287,8.3,12.8,49,0.00,,---,0.00,VWS V14.01,2013-01-31 13:51:00,
2013-01-31 06:56:00,36.3,19.0,29.79,SW,231,5.8,5.8,49,0.00,,---,0.00,VWS V14.01,2013-01-31 13:56:00,
2013-01-31 07:01:00,36.3,19.5,29.79,NW,313,5.4,5.4,50,0.00,,---,0.00,VWS V14.01,2013-01-31 14:01:00,
2013-01-31 07:06:00,36.3,19.0,29.82,SW,234,2.2,3.6,49,0.00,,---,0.00,VWS V14.01,2013-01-31 14:06:00,
2013-01-31 07:11:00,36.5,19.2,29.82,West,271,5.8,5.8,49,0.00,,---,0.00,VWS V14.01,2013-01-31 14:11:00,
2013-01-31 07:16:00,36.5,19.6,29.82,WNW,298,3.1,4.0,50,0.00,,---,0.00,VWS V14.01,2013-01-31 14:16:00,
2013-01-31 07:21:00,36.3,19.5,29.82,WNW,286,5.4,5.8,50,0.00,,---,0.00,VWS V14.01,2013-01-31 14:21:00,
2013-01-31 07:26:00,36.1,19.8,29.82,NW,321,4.9,5.8,51,0.00,,---,0.00,VWS V14.01,2013-01-31 14:26:00,
2013-01-31 07:31:00,36.0,19.6,29.82,WNW,300,3.1,3.1,51,0.00,,---,0.00,VWS V14.01,2013-01-31 14:31:00,
2013-01-31 07:36:00,36.1,19.8,29.79,NW,315,5.4,6.3,51,0.00,,---,0.00,VWS V14.01,2013-01-31 14:36:00,
2013-01-31 07:41:00,36.0,19.6,29.79,West,267,5.4,5.4,51,0.00,,---,0.00,VWS V14.01,2013-01-31 14:41:00,
2013-01-31 07:46:00,36.1,19.8,29.79,NW,318,5.8,5.8,51,0.00,,---,0.00,VWS V14.01,2013-01-31 14:46:00,
2013-01-31 07:51:00,36.1,19.8,29.79,NW,307,5.8,5.8,51,0.00,,---,0.00,VWS V14.01,2013-01-31 14:51:00,
2013-01-31 07:56:00,36.1,19.8,29.79,NW,317,3.6,3.6,51,0.00,,---,0.00,VWS V14.01,2013-01-31 14:56:00,
2013-01-31 08:01:00,36.1,19.8,29.79,SW,235,5.4,8.7,51,0.00,,---,0.00,VWS V14.01,2013-01-31 15:01:00,
2013-01-31 08:06:00,36.3,19.9,29.82,NW,319,6.3,6.3,51,0.00,,---,0.00,VWS V14.01,2013-01-31 15:06:00,
2013-01-31 08:11:00,36.3,19.9,29.82,WNW,291,0.0,0.0,51,0.00,,---,0.00,VWS V14.01,2013-01-31 15:11:00,
2013-01-31 08:16:00,36.1,19.8,29.82,WNW,301,3.1,3.1,51,0.00,,---,0.00,VWS V14.01,2013-01-31 15:16:00,
2013-01-31 08:21:00,36.0,20.1,29.82,NW,315,4.0,4.0,52,0.00,,---,0.00,VWS V14.01,2013-01-31 15:21:00,
2013-01-31 08:26:00,35.8,20.3,29.82,WNW,300,0.0,0.0,53,0.00,,---,0.00,VWS V14.01,2013-01-31 15:26:00,
2013-01-31 08:31:00,35.8,19.9,29.82,NW,317,5.4,5.4,52,0.00,,---,0.00,VWS V14.01,2013-01-31 15:31:00,
2013-01-31 08:36:00,35.8,20.3,29.82,WNW,298,5.8,5.8,53,0.00,,---,0.00,VWS V14.01,2013-01-31 15:36:00,
2013-01-31 08:41:00,35.8,20.3,29.82,WNW,295,6.3,8.1,53,0.00,,---,0.00,VWS V14.01,2013-01-31 15:41:00,
2013-01-31 08:46:00,36.1,20.2,29.82,WNW,293,4.0,4.0,52,0.00,,---,0.00,VWS V14.01,2013-01-31 15:46:00,
2013-01-31 08:51:00,36.0,20.1,29.82,WNW,294,5.8,5.8,52,0.00,,---,0.00,VWS V14.01,2013-01-31 15:51:00,
2013-01-31 08:56:00,35.8,20.3,29.82,WNW,302,6.3,6.3,53,0.00,,---,0.00,VWS V14.01,2013-01-31 15:56:00,
2013-01-31 09:01:00,35.8,20.3,29.82,WNW,293,4.0,4.0,53,0.00,,---,0.00,VWS V14.01,2013-01-31 16:01:00,
2013-01-31 09:06:00,35.8,20.3,29.82,West,269,4.0,4.0,53,0.00,,---,0.00,VWS V14.01,2013-01-31 16:06:00,
2013-01-31 09:11:00,35.8,20.3,29.82,WNW,297,6.3,7.6,53,0.00,,---,0.00,VWS V14.01,2013-01-31 16:11:00,
2013-01-31 09:16:00,36.0,20.5,29.82,WNW,294,3.1,3.1,53,0.00,,---,0.00,VWS V14.01,2013-01-31 16:16:00,
2013-01-31 09:21:00,36.1,20.7,29.82,WNW,285,5.8,5.8,53,0.00,,---,0.00,VWS V14.01,2013-01-31 16:21:00,
2013-01-31 09:26:00,36.1,20.7,29.82,WNW,298,4.0,4.0,53,0.00,,---,0.00,VWS V14.01,2013-01-31 16:26:00,
2013-01-31 09:31:00,36.3,20.4,29.82,NW,320,7.2,7.2,52,0.00,,---,0.00,VWS V14.01,2013-01-31 16:31:00,
2013-01-31 09:36:00,36.5,20.1,29.82,WSW,258,6.3,6.3,51,0.00,,---,0.00,VWS V14.01,2013-01-31 16:36:00,
2013-01-31 09:41:00,36.9,20.4,29.82,West,277,3.1,6.3,51,0.00,,---,0.00,VWS V14.01,2013-01-31 16:41:00,
2013-01-31 09:46:00,36.9,20.9,29.82,NW,304,5.8,5.8,52,0.00,,---,0.00,VWS V14.01,2013-01-31 16:46:00,
2013-01-31 09:51:00,37.0,20.6,29.82,WNW,295,3.6,5.4,51,0.00,,---,0.00,VWS V14.01,2013-01-31 16:51:00,
2013-01-31 09:56:00,37.0,20.6,29.82,NW,312,5.8,6.3,51,0.00,,---,0.00,VWS V14.01,2013-01-31 16:56:00,
2013-01-31 10:01:00,37.2,20.8,29.82,NW,306,2.7,5.4,51,0.00,,---,0.00,VWS V14.01,2013-01-31 17:01:00,
2013-01-31 10:06:00,37.0,20.6,29.82,WNW,300,3.1,3.1,51,0.00,,---,0.00,VWS V14.01,2013-01-31 17:06:00,
2013-01-31 10:11:00,37.0,20.6,29.82,WNW,294,4.0,4.0,51,0.00,,---,0.00,VWS V14.01,2013-01-31 17:11:00,
2013-01-31 10:16:00,37.0,21.1,29.82,NW,312,3.1,4.0,52,0.00,,---,0.00,VWS V14.01,2013-01-31 17:16:00,
2013-01-31 10:21:00,37.0,21.1,29.85,NW,306,5.4,5.4,52,0.00,,---,0.00,VWS V14.01,2013-01-31 17:21:00,
2013-01-31 10:26:00,37.0,21.1,29.85,WNW,292,3.6,3.6,52,0.00,,---,0.00,VWS V14.01,2013-01-31 17:26:00,
2013-01-31 10:31:00,37.2,21.2,29.85,WNW,282,3.1,3.1,52,0.00,,---,0.00,VWS V14.01,2013-01-31 17:31:00,
2013-01-31 10:36:00,37.4,20.9,29.85,NW,304,5.8,8.1,51,0.00,,---,0.00,VWS V14.01,2013-01-31 17:36:00,
2013-01-31 10:41:00,37.4,21.4,29.85,NW,310,5.4,9.6,52,0.00,,---,0.00,VWS V14.01,2013-01-31 17:41:00,
2013-01-31 10:46:00,37.4,21.4,29.85,NW,325,3.6,4.9,52,0.00,,---,0.00,VWS V14.01,2013-01-31 17:46:00,
2013-01-31 10:51:00,37.2,21.7,29.85,WNW,288,6.3,8.3,53,0.00,,---,0.00,VWS V14.01,2013-01-31 17:51:00,
2013-01-31 10:56:00,37.2,21.7,29.85,WNW,296,4.0,4.0,53,0.00,,---,0.00,VWS V14.01,2013-01-31 17:56:00,
2013-01-31 11:01:00,37.2,22.1,29.85,WSW,253,3.6,4.0,54,0.00,,---,0.00,VWS V14.01,2013-01-31 18:01:00,
2013-01-31 11:06:00,37.2,21.7,29.85,West,274,5.8,5.8,53,0.00,,---,0.00,VWS V14.01,2013-01-31 18:06:00,
2013-01-31 11:11:00,37.4,21.9,29.85,West,262,2.7,2.7,53,0.00,,---,0.00,VWS V14.01,2013-01-31 18:11:00,
2013-01-31 11:16:00,37.4,21.4,29.85,WNW,301,3.6,3.6,52,0.00,,---,0.00,VWS V14.01,2013-01-31 18:16:00,
2013-01-31 11:21:00,37.6,21.6,29.85,WNW,292,5.4,6.3,52,0.00,,---,0.00,VWS V14.01,2013-01-31 18:21:00,
2013-01-31 11:26:00,37.8,21.7,29.85,WNW,289,5.4,7.6,52,0.00,,---,0.00,VWS V14.01,2013-01-31 18:26:00,
2013-01-31 11:31:00,37.9,21.9,29.85,WNW,299,3.6,5.8,52,0.00,,---,0.00,VWS V14.01,2013-01-31 18:31:00,
2013-01-31 11:36:00,37.9,21.4,29.82,NW,316,3.1,6.3,51,0.00,,---,0.00,VWS V14.01,2013-01-31 18:36:00,
2013-01-31 11:41:00,37.9,21.9,29.82,West,279,6.3,8.7,52,0.00,,---,0.00,VWS V14.01,2013-01-31 18:41:00,
2013-01-31 11:46:00,38.1,21.6,29.82,West,276,4.9,4.9,51,0.00,,---,0.00,VWS V14.01,2013-01-31 18:46:00,
2013-01-31 11:51:00,38.5,21.5,29.85,West,281,6.3,6.3,50,0.00,,---,0.00,VWS V14.01,2013-01-31 18:51:00,
2013-01-31 11:56:00,38.5,21.9,29.85,NW,306,4.0,4.0,51,0.00,,---,0.00,VWS V14.01,2013-01-31 18:56:00,
2013-01-31 12:01:00,38.5,21.9,29.85,WSW,251,5.4,5.8,51,0.00,,---,0.00,VWS V14.01,2013-01-31 19:01:00,
2013-01-31 12:06:00,38.5,21.9,29.85,NW,325,5.4,8.7,51,0.00,,---,0.00,VWS V14.01,2013-01-31 19:06:00,
2013-01-31 12:11:00,38.7,21.6,29.85,NW,304,3.6,7.6,50,0.00,,---,0.00,VWS V14.01,2013-01-31 19:11:00,
2013-01-31 12:16:00,38.7,21.2,29.85,NW,318,4.0,12.8,49,0.00,,---,0.00,VWS V14.01,2013-01-31 19:16:00,
2013-01-31 12:21:00,38.8,21.8,29.85,WNW,284,3.1,5.4,50,0.00,,---,0.00,VWS V14.01,2013-01-31 19:21:00,
2013-01-31 12:26:00,38.8,20.8,29.85,WNW,291,11.0,14.5,48,0.00,,---,0.00,VWS V14.01,2013-01-31 19:26:00,
2013-01-31 12:31:00,39.2,21.2,29.85,West,268,3.6,3.6,48,0.00,,---,0.00,VWS V14.01,2013-01-31 19:31:00,
2013-01-31 12:36:00,39.2,21.2,29.82,West,281,5.8,6.7,48,0.00,,---,0.00,VWS V14.01,2013-01-31 19:36:00,
2013-01-31 12:41:00,39.4,20.8,29.82,WNW,283,8.3,8.3,47,0.00,,---,0.00,VWS V14.01,2013-01-31 19:41:00,
2013-01-31 12:46:00,39.2,21.2,29.82,SW,226,5.8,10.1,48,0.00,,---,0.00,VWS V14.01,2013-01-31 19:46:00,
2013-01-31 12:51:00,39.0,21.5,29.82,WNW,285,5.4,8.3,49,0.00,,---,0.00,VWS V14.01,2013-01-31 19:51:00,
2013-01-31 12:56:00,38.8,22.3,29.82,SW,232,5.8,5.8,51,0.00,,---,0.00,VWS V14.01,2013-01-31 19:56:00,
2013-01-31 13:01:00,38.3,22.7,29.82,WNW,287,6.3,8.1,53,0.00,,---,0.00,VWS V14.01,2013-01-31 20:01:00,
2013-01-31 13:06:00,37.9,23.2,29.82,WNW,301,5.8,8.3,55,0.00,,---,0.00,VWS V14.01,2013-01-31 20:06:00,
2013-01-31 13:10:00,37.8,23.5,29.82,NW,311,0.0,8.7,56,0.00,,---,0.00,VWS V14.01,2013-01-31 20:10:00,
2013-01-31 13:15:00,37.9,23.2,29.82,West,267,3.6,8.1,55,0.00,,---,0.00,VWS V14.01,2013-01-31 20:15:00,
2013-01-31 13:20:00,38.1,22.5,29.82,West,265,10.1,10.1,53,0.00,,---,0.00,VWS V14.01,2013-01-31 20:20:00,
2013-01-31 13:25:00,38.5,21.5,29.82,West,274,5.8,10.5,50,0.00,,---,0.00,VWS V14.01,2013-01-31 20:25:00,
2013-01-31 13:30:00,38.7,22.1,29.82,NW,315,4.9,5.4,51,0.00,,---,0.00,VWS V14.01,2013-01-31 20:30:00,
2013-01-31 13:35:00,38.7,21.6,29.82,West,267,7.6,7.6,50,0.00,,---,0.00,VWS V14.01,2013-01-31 20:35:00,
2013-01-31 13:40:00,38.8,21.3,29.82,West,273,5.8,9.2,49,0.00,,---,0.00,VWS V14.01,2013-01-31 20:40:00,
2013-01-31 13:45:00,38.7,22.1,29.82,WNW,293,8.3,8.3,51,0.00,,---,0.00,VWS V14.01,2013-01-31 20:45:00,
2013-01-31 13:50:00,38.7,22.1,29.82,NW,313,7.6,8.7,51,0.00,,---,0.00,VWS V14.01,2013-01-31 20:50:00,
2013-01-31 13:55:00,38.5,22.9,29.82,WNW,291,10.1,10.5,53,0.00,,---,0.00,VWS V14.01,2013-01-31 20:55:00,
2013-01-31 14:00:00,38.1,23.0,29.82,WNW,293,4.0,7.6,54,0.00,,---,0.00,VWS V14.01,2013-01-31 21:00:00,
2013-01-31 14:05:00,38.1,23.0,29.82,NW,310,5.4,6.3,54,0.00,,---,0.00,VWS V14.01,2013-01-31 21:05:00,
2013-01-31 14:10:00,38.1,23.0,29.82,WNW,300,6.3,10.1,54,0.00,,---,0.00,VWS V14.01,2013-01-31 21:10:00,
2013-01-31 14:15:00,37.9,22.8,29.82,NW,311,3.6,7.2,54,0.00,,---,0.00,VWS V14.01,2013-01-31 21:15:00,
2013-01-31 14:20:00,37.9,22.8,29.82,West,276,4.9,8.1,54,0.00,,---,0.00,VWS V14.01,2013-01-31 21:20:00,
2013-01-31 14:25:00,37.9,23.2,29.82,WNW,293,5.4,6.3,55,0.00,,---,0.00,VWS V14.01,2013-01-31 21:25:00,
2013-01-31 14:30:00,37.9,23.2,29.82,WSW,258,6.3,8.7,55,0.00,,---,0.00,VWS V14.01,2013-01-31 21:30:00,
2013-01-31 14:35:00,37.8,23.5,29.82,West,277,8.3,8.3,56,0.00,,---,0.00,VWS V14.01,2013-01-31 21:35:00,
2013-01-31 14:40:00,37.8,23.9,29.82,West,262,5.8,6.3,57,0.00,,---,0.00,VWS V14.01,2013-01-31 21:40:00,
2013-01-31 14:45:00,37.8,23.9,29.82,NW,321,5.4,7.6,57,0.00,,---,0.00,VWS V14.01,2013-01-31 21:45:00,
2013-01-31 14:50:00,37.9,23.7,29.82,NW,319,4.0,6.3,56,0.00,,---,0.00,VWS V14.01,2013-01-31 21:50:00,
2013-01-31 14:55:00,37.9,23.7,29.82,NNW,332,6.3,6.3,56,0.00,,---,0.00,VWS V14.01,2013-01-31 21:55:00,
2013-01-31 15:00:00,38.1,23.4,29.82,SW,226,3.1,5.8,55,0.00,,---,0.00,VWS V14.01,2013-01-31 22:00:00,
2013-01-31 15:05:00,38.5,22.9,29.79,WNW,290,4.0,5.8,53,0.00,,---,0.00,VWS V14.01,2013-01-31 22:05:00,
2013-01-31 15:10:00,38.7,22.1,29.79,WSW,258,10.1,13.2,51,0.00,,---,0.00,VWS V14.01,2013-01-31 22:10:00,
2013-01-31 15:15:00,39.0,22.0,29.79,West,259,4.0,8.7,50,0.00,,---,0.00,VWS V14.01,2013-01-31 22:15:00,
2013-01-31 15:20:00,39.0,22.0,29.79,WNW,289,10.1,10.1,50,0.00,,---,0.00,VWS V14.01,2013-01-31 22:20:00,
2013-01-31 15:25:00,39.0,22.0,29.79,West,261,5.8,10.1,50,0.00,,---,0.00,VWS V14.01,2013-01-31 22:25:00,
2013-01-31 15:30:00,38.8,21.3,29.79,WSW,251,7.6,10.5,49,0.00,,---,0.00,VWS V14.01,2013-01-31 22:30:00,
2013-01-31 15:35:00,38.8,21.3,29.79,WNW,286,5.8,7.6,49,0.00,,---,0.00,VWS V14.01,2013-01-31 22:35:00,
2013-01-31 15:40:00,38.8,21.3,29.79,WNW,284,5.8,11.0,49,0.00,,---,0.00,VWS V14.01,2013-01-31 22:40:00,
2013-01-31 15:45:00,39.0,21.5,29.79,WSW,250,8.3,8.3,49,0.00,,---,0.00,VWS V14.01,2013-01-31 22:45:00,
2013-01-31 15:50:00,38.8,21.3,29.79,WSW,239,13.2,13.2,49,0.00,,---,0.00,VWS V14.01,2013-01-31 22:50:00,
2013-01-31 15:55:00,38.8,21.3,29.79,WSW,249,10.5,10.5,49,0.00,,---,0.00,VWS V14.01,2013-01-31 22:55:00,
2013-01-31 16:00:00,38.8,21.3,29.79,NNW,330,7.6,11.0,49,0.00,,---,0.00,VWS V14.01,2013-01-31 23:00:00,
2013-01-31 16:05:00,38.8,21.3,29.82,West,281,7.6,8.3,49,0.00,,---,0.00,VWS V14.01,2013-01-31 23:05:00,
2013-01-31 16:10:00,38.8,21.8,29.82,West,269,8.7,8.7,50,0.00,,---,0.00,VWS V14.01,2013-01-31 23:10:00,
2013-01-31 16:15:00,38.7,21.6,29.82,NW,308,5.8,10.5,50,0.00,,---,0.00,VWS V14.01,2013-01-31 23:15:00,
2013-01-31 16:20:00,38.7,21.6,29.82,WSW,238,8.1,8.1,50,0.00,,---,0.00,VWS V14.01,2013-01-31 23:20:00,
2013-01-31 16:25:00,38.7,21.2,29.82,WSW,250,8.1,8.1,49,0.00,,---,0.00,VWS V14.01,2013-01-31 23:25:00,
2013-01-31 16:30:00,38.7,21.6,29.82,WNW,291,5.8,7.6,50,0.00,,---,0.00,VWS V14.01,2013-01-31 23:30:00,
2013-01-31 16:35:00,38.7,21.6,29.82,West,264,6.3,7.6,50,0.00,,---,0.00,VWS V14.01,2013-01-31 23:35:00,
2013-01-31 16:40:00,38.5,21.5,29.82,NW,312,2.2,6.3,50,0.00,,---,0.00,VWS V14.01,2013-01-31 23:40:00,
2013-01-31 16:45:00,38.5,21.9,29.82,NW,315,5.8,8.7,51,0.00,,---,0.00,VWS V14.01,2013-01-31 23:45:00,
2013-01-31 16:50:00,38.3,22.2,29.82,NW,312,12.3,12.3,52,0.00,,---,0.00,VWS V14.01,2013-01-31 23:50:00,
2013-01-31 16:55:00,38.1,22.5,29.82,SW,233,2.2,4.9,53,0.00,,---,0.00,VWS V14.01,2013-01-31 23:55:00,
2013-01-31 17:00:00,38.1,22.1,29.82,WNW,298,5.8,5.8,52,0.00,,---,0.00,VWS V14.01,2013-02-01 00:00:00,
2013-01-31 17:05:00,37.9,21.9,29.82,West,264,4.0,5.8,52,0.00,,---,0.00,VWS V14.01,2013-02-01 00:05:00,
2013-01-31 17:10:00,38.1,21.6,29.82,West,263,5.4,5.4,51,0.00,,---,0.00,VWS V14.01,2013-02-01 00:10:00,
2013-01-31 17:15:00,38.1,22.1,29.82,West,272,4.0,7.6,52,0.00,,---,0.00,VWS V14.01,2013-02-01 00:15:00,
2013-01-31 17:20:00,38.1,21.6,29.82,WNW,296,8.1,8.1,51,0.00,,---,0.00,VWS V14.01,2013-02-01 00:20:00,
2013-01-31 17:25:00,38.1,21.6,29.82,WNW,282,6.3,7.6,51,0.00,,---,0.00,VWS V14.01,2013-02-01 00:25:00,
2013-01-31 17:30:00,37.9,21.4,29.82,WNW,284,0.0,0.0,51,0.00,,---,0.00,VWS V14.01,2013-02-01 00:30:00,
2013-01-31 17:35:00,37.9,21.4,29.82,WNW,293,2.7,4.9,51,0.00,,---,0.00,VWS V14.01,2013-02-01 00:35:00,
2013-01-31 17:40:00,37.9,21.4,29.82,WNW,295,5.4,5.4,51,0.00,,---,0.00,VWS V14.01,2013-02-01 00:40:00,
2013-01-31 17:45:00,37.9,21.4,29.82,WNW,301,3.1,4.9,51,0.00,,---,0.00,VWS V14.01,2013-02-01 00:45:00,
2013-01-31 17:50:00,37.8,21.7,29.82,NW,319,0.0,0.0,52,0.00,,---,0.00,VWS V14.01,2013-02-01 00:50:00,
2013-01-31 17:55:00,37.8,21.7,29.82,NW,320,0.0,0.0,52,0.00,,---,0.00,VWS V14.01,2013-02-01 00:55:00,
2013-01-31 18:00:00,37.6,22.0,29.82,NW,321,0.0,0.0,53,0.00,,---,0.00,VWS V14.01,2013-02-01 01:00:00,
2013-01-31 18:05:00,37.4,21.9,29.82,WNW,300,0.0,0.0,53,0.00,,---,0.00,VWS V14.01,2013-02-01 01:05:00,
2013-01-31 18:10:00,37.4,21.9,29.82,WNW,300,0.0,0.0,53,0.00,,---,0.00,VWS V14.01,2013-02-01 01:10:00,
2013-01-31 18:15:00,37.0,22.0,29.82,WNW,300,0.0,0.0,54,0.00,,---,0.00,VWS V14.01,2013-02-01 01:15:00,
2013-01-31 18:20:00,37.0,22.0,29.82,NNE,20,0.0,0.0,54,0.00,,---,0.00,VWS V14.01,2013-02-01 01:20:00,
2013-01-31 18:25:00,36.9,22.2,29.82,NNE,20,0.0,0.0,55,0.00,,---,0.00,VWS V14.01,2013-02-01 01:25:00,
2013-01-31 18:30:00,37.0,22.0,29.82,West,271,0.0,0.0,54,0.00,,---,0.00,VWS V14.01,2013-02-01 01:30:00,
2013-01-31 18:35:00,37.0,22.0,29.82,West,271,0.0,0.0,54,0.00,,---,0.00,VWS V14.01,2013-02-01 01:35:00,
2013-01-31 18:40:00,36.9,22.2,29.82,NW,318,0.0,0.0,55,0.00,,---,0.00,VWS V14.01,2013-02-01 01:40:00,
2013-01-31 18:45:00,36.7,22.5,29.82,ENE,60,4.9,4.9,56,0.00,,---,0.00,VWS V14.01,2013-02-01 01:45:00,
2013-01-31 18:50:00,36.5,22.7,29.82,NW,320,2.2,2.2,57,0.00,,---,0.00,VWS V14.01,2013-02-01 01:50:00,
2013-01-31 18:55:00,36.3,23.4,29.82,SW,230,2.7,2.7,59,0.00,,---,0.00,VWS V14.01,2013-02-01 01:55:00,
2013-01-31 19:00:00,36.5,21.9,29.82,SE,132,3.6,5.8,55,0.00,,---,0.00,VWS V14.01,2013-02-01 02:00:00,
2013-01-31 19:05:00,37.0,21.5,29.82,WNW,294,0.0,0.0,53,0.00,,---,0.00,VWS V14.01,2013-02-01 02:05:00,
2013-01-31 19:10:00,37.0,22.0,29.82,WNW,295,0.0,0.0,54,0.00,,---,0.00,VWS V14.01,2013-02-01 02:10:00,
2013-01-31 19:15:00,37.0,22.0,29.82,WNW,298,0.0,0.0,54,0.00,,---,0.00,VWS V14.01,2013-02-01 02:15:00,
2013-01-31 19:20:00,37.0,20.1,29.82,WNW,293,4.9,4.9,50,0.00,,---,0.00,VWS V14.01,2013-02-01 02:20:00,
2013-01-31 19:25:00,37.8,20.3,29.82,West,264,0.0,0.0,49,0.00,,---,0.00,VWS V14.01,2013-02-01 02:25:00,
2013-01-31 19:30:00,37.9,20.5,29.82,NNE,18,0.0,0.0,49,0.00,,---,0.00,VWS V14.01,2013-02-01 02:30:00,
2013-01-31 19:35:00,37.6,21.1,29.82,WNW,299,4.0,4.0,51,0.00,,---,0.00,VWS V14.01,2013-02-01 02:35:00,
2013-01-31 19:40:00,37.8,20.3,29.82,West,281,0.0,0.0,49,0.00,,---,0.00,VWS V14.01,2013-02-01 02:40:00,
2013-01-31 19:45:00,37.9,20.0,29.82,West,275,0.0,0.0,48,0.00,,---,0.00,VWS V14.01,2013-02-01 02:45:00,
2013-01-31 19:50:00,37.8,20.3,29.82,West,275,0.0,0.0,49,0.00,,---,0.00,VWS V14.01,2013-02-01 02:50:00,
2013-01-31 19:55:00,37.6,19.7,29.82,NW,312,0.0,5.8,48,0.00,,---,0.00,VWS V14.01,2013-02-01 02:55:00,
2013-01-31 20:00:00,37.9,19.5,29.82,West,279,2.7,2.7,47,0.00,,---,0.00,VWS V14.01,2013-02-01 03:00:00,
2013-01-31 20:05:00,37.9,19.5,29.79,NW,305,2.2,3.1,47,0.00,,---,0.00,VWS V14.01,2013-02-01 03:05:00,
2013-01-31 20:10:00,37.9,20.0,29.79,NW,317,2.7,3.1,48,0.00,,---,0.00,VWS V14.01,2013-02-01 03:10:00,
2013-01-31 20:15:00,37.6,19.7,29.79,WSW,241,3.6,3.6,48,0.00,,---,0.00,VWS V14.01,2013-02-01 03:15:00,
2013-01-31 20:20:00,37.8,19.9,29.82,West,268,0.0,0.0,48,0.00,,---,0.00,VWS V14.01,2013-02-01 03:20:00,
2013-01-31 20:25:00,37.6,19.7,29.82,NW,320,0.0,0.0,48,0.00,,---,0.00,VWS V14.01,2013-02-01 03:25:00,
2013-01-31 20:30:00,37.8,18.9,29.82,West,279,0.0,0.0,46,0.00,,---,0.00,VWS V14.01,2013-02-01 03:30:00,
2013-01-31 20:35:00,37.6,19.7,29.82,WNW,297,0.0,0.0,48,0.00,,---,0.00,VWS V14.01,2013-02-01 03:35:00,
2013-01-31 20:40:00,37.4,20.0,29.82,WNW,297,0.0,0.0,49,0.00,,---,0.00,VWS V14.01,2013-02-01 03:40:00,
2013-01-31 20:45:00,37.0,20.1,29.82,NW,304,0.0,0.0,50,0.00,,---,0.00,VWS V14.01,2013-02-01 03:45:00,
2013-01-31 20:50:00,36.9,20.4,29.79,North,357,0.0,0.0,51,0.00,,---,0.00,VWS V14.01,2013-02-01 03:50:00,
2013-01-31 20:55:00,36.7,20.3,29.79,North,357,0.0,0.0,51,0.00,,---,0.00,VWS V14.01,2013-02-01 03:55:00,
2013-01-31 21:00:00,36.5,20.6,29.79,North,6,0.0,0.0,52,0.00,,---,0.00,VWS V14.01,2013-02-01 04:00:00,
2013-01-31 21:05:00,36.3,20.8,29.82,North,9,0.0,0.0,53,0.00,,---,0.00,VWS V14.01,2013-02-01 04:05:00,
2013-01-31 21:10:00,36.1,21.1,29.82,North,9,0.0,0.0,54,0.00,,---,0.00,VWS V14.01,2013-02-01 04:10:00,
2013-01-31 21:15:00,35.8,20.8,29.82,North,9,0.0,0.0,54,0.00,,---,0.00,VWS V14.01,2013-02-01 04:15:00,
2013-01-31 21:20:00,36.0,21.0,29.82,North,9,0.0,0.0,54,0.00,,---,0.00,VWS V14.01,2013-02-01 04:20:00,
2013-01-31 21:25:00,36.1,19.8,29.82,West,268,0.0,0.0,51,0.00,,---,0.00,VWS V14.01,2013-02-01 04:25:00,
2013-01-31 21:30:00,36.1,21.1,29.82,South,189,2.2,2.7,54,0.00,,---,0.00,VWS V14.01,2013-02-01 04:30:00,
2013-01-31 21:35:00,36.5,20.1,29.79,NW,309,0.0,0.0,51,0.00,,---,0.00,VWS V14.01,2013-02-01 04:35:00,
2013-01-31 21:40:00,36.7,20.3,29.79,SW,220,0.0,0.0,51,0.00,,---,0.00,VWS V14.01,2013-02-01 04:40:00,
2013-01-31 21:45:00,36.5,20.1,29.79,SW,225,0.0,0.0,51,0.00,,---,0.00,VWS V14.01,2013-02-01 04:45:00,
2013-01-31 21:50:00,36.7,19.8,29.79,WNW,295,0.0,0.0,50,0.00,,---,0.00,VWS V14.01,2013-02-01 04:50:00,
2013-01-31 21:55:00,36.9,20.0,29.79,WNW,282,0.0,0.0,50,0.00,,---,0.00,VWS V14.01,2013-02-01 04:55:00,
2013-01-31 22:00:00,36.9,20.0,29.79,WNW,282,0.0,0.0,50,0.00,,---,0.00,VWS V14.01,2013-02-01 05:00:00,
2013-01-31 22:02:00,36.7,19.8,29.79,WNW,285,0.0,0.0,50,0.00,,---,0.00,VWS V14.01,2013-02-01 05:02:00,
2013-01-31 22:07:00,36.7,19.3,29.79,WNW,299,2.2,3.6,49,0.00,,---,0.00,VWS V14.01,2013-02-01 05:07:00,
2013-01-31 22:12:00,37.0,19.2,29.79,WNW,302,0.0,2.7,48,0.00,,---,0.00,VWS V14.01,2013-02-01 05:12:00,
2013-01-31 22:17:00,36.7,19.3,29.79,WNW,301,8.1,8.3,49,0.00,,---,0.00,VWS V14.01,2013-02-01 05:17:00,
2013-01-31 22:22:00,36.9,19.0,29.79,NW,316,3.6,4.9,48,0.00,,---,0.00,VWS V14.01,2013-02-01 05:22:00,
2013-01-31 22:27:00,36.9,19.5,29.79,West,272,4.9,4.9,49,0.00,,---,0.00,VWS V14.01,2013-02-01 05:27:00,
2013-01-31 22:32:00,36.7,19.8,29.79,WNW,293,2.7,2.7,50,0.00,,---,0.00,VWS V14.01,2013-02-01 05:32:00,
2013-01-31 22:37:00,36.3,19.5,29.79,WNW,285,3.1,3.6,50,0.00,,---,0.00,VWS V14.01,2013-02-01 05:37:00,
2013-01-31 22:42:00,36.0,20.1,29.79,WNW,300,5.8,5.8,52,0.00,,---,0.00,VWS V14.01,2013-02-01 05:42:00,
2013-01-31 22:47:00,35.8,19.9,29.79,WNW,300,0.0,3.6,52,0.00,,---,0.00,VWS V14.01,2013-02-01 05:47:00,
2013-01-31 22:52:00,35.6,20.2,29.79,West,260,4.0,4.9,53,0.00,,---,0.00,VWS V14.01,2013-02-01 05:52:00,
2013-01-31 22:57:00,35.4,20.4,29.79,WNW,293,3.1,4.0,54,0.00,,---,0.00,VWS V14.01,2013-02-01 05:57:00,
2013-01-31 23:02:00,35.4,20.4,29.79,West,278,3.1,4.0,54,0.00,,---,0.00,VWS V14.01,2013-02-01 06:02:00,
2013-01-31 23:07:00,35.4,20.4,29.79,WSW,254,3.1,4.0,54,0.00,,---,0.00,VWS V14.01,2013-02-01 06:07:00,
2013-01-31 23:12:00,35.2,20.7,29.79,WNW,283,2.7,2.7,55,0.00,,---,0.00,VWS V14.01,2013-02-01 06:12:00,
2013-01-31 23:17:00,35.4,20.9,29.79,West,277,4.0,5.8,55,0.00,,---,0.00,VWS V14.01,2013-02-01 06:17:00,
2013-01-31 23:22:00,35.6,20.6,29.79,WSW,251,3.1,4.0,54,0.00,,---,0.00,VWS V14.01,2013-02-01 06:22:00,
2013-01-31 23:27:00,35.4,20.9,29.79,WSW,251,0.0,0.0,55,0.00,,---,0.00,VWS V14.01,2013-02-01 06:27:00,
2013-01-31 23:32:00,35.2,20.7,29.79,WSW,248,0.0,0.0,55,0.00,,---,0.00,VWS V14.01,2013-02-01 06:32:00,
2013-01-31 23:37:00,35.1,20.5,29.79,WSW,249,0.0,0.0,55,0.00,,---,0.00,VWS V14.01,2013-02-01 06:37:00,
2013-01-31 23:42:00,35.4,20.4,29.79,WNW,298,3.6,3.6,54,0.00,,---,0.00,VWS V14.01,2013-02-01 06:42:00,
2013-01-31 23:47:00,35.6,20.6,29.79,WNW,292,6.3,7.6,54,0.00,,---,0.00,VWS V14.01,2013-02-01 06:47:00,
2013-01-31 23:52:00,35.6,21.0,29.79,SW,222,5.4,5.4,55,0.00,,---,0.00,VWS V14.01,2013-02-01 06:52:00,
2013-01-31 23:57:00,35.4,21.3,29.79,WSW,255,3.6,7.2,56,0.00,,---,0.00,VWS V14.01,2013-02-01 06:57:00,